Time;durP1;ratioP1;P1;durP2;ratioP2;P2;SDS_P1;SDS_P2;PMS_P1;PMS_P2;Temp;Humidity;BMP_temperature;BMP_pressure;BME280_temperature;BME280_humidity;BME280_pressure;Samples;Min_cycle;Max_cycle;Signal;HPM_P1;HPM_P2
2023/04/05 00:02:20;;;;;;;3.90;2.85;;;16.10;40.30;;;;;;5054993;28;20215;-64
2023/04/05 00:04:56;;;;;;;3.17;2.88;;;16.10;40.40;;;;;;5055614;28;20191;-64
2023/04/05 00:07:25;;;;;;;3.20;2.90;;;16.00;40.20;;;;;;5054701;28;20211;-65
2023/04/05 00:09:52;;;;;;;3.00;2.70;;;16.00;40.30;;;;;;5036844;28;20203;-65
2023/04/05 00:12:19;;;;;;;3.40;2.80;;;16.00;40.40;;;;;;5054791;28;20624;-65
2023/04/05 00:14:47;;;;;;;3.20;2.72;;;16.00;40.40;;;;;;5054996;28;20613;-64
2023/04/05 00:17:14;;;;;;;3.13;2.80;;;16.00;40.60;;;;;;5036734;28;20215;-65
2023/04/05 00:19:42;;;;;;;3.28;2.65;;;16.00;40.40;;;;;;5036891;28;20230;-64
2023/04/05 00:22:10;;;;;;;3.33;3.00;;;15.90;40.40;;;;;;5054769;28;20297;-64
2023/04/05 00:24:40;;;;;;;3.38;2.70;;;15.90;40.40;;;;;;5054698;28;20195;-65
2023/04/05 00:27:08;;;;;;;3.22;2.92;;;15.90;40.50;;;;;;5036553;28;20254;-65
2023/04/05 00:29:35;;;;;;;3.25;2.60;;;15.90;40.40;;;;;;5036383;28;20638;-65
2023/04/05 00:32:03;;;;;;;3.13;2.83;;;15.90;40.50;;;;;;5036433;28;20199;-64
2023/04/05 00:34:32;;;;;;;3.08;2.78;;;15.90;40.60;;;;;;5036672;28;20206;-64
2023/04/05 00:36:59;;;;;;;3.25;2.80;;;15.90;40.60;;;;;;5053975;28;20214;-64
2023/04/05 00:39:28;;;;;;;2.70;2.50;;;15.80;40.60;;;;;;5036853;28;20608;-64
2023/04/05 00:41:56;;;;;;;2.95;2.72;;;15.80;40.70;;;;;;5054243;28;20686;-64
2023/04/05 00:44:22;;;;;;;3.50;2.83;;;15.80;40.60;;;;;;5054172;28;20257;-64
2023/04/05 00:46:51;;;;;;;3.80;2.63;;;15.80;40.50;;;;;;5036042;28;20302;-64
2023/04/05 00:49:17;;;;;;;2.83;2.60;;;15.80;40.50;;;;;;5036270;28;20195;-65
2023/04/05 00:51:45;;;;;;;4.30;3.13;;;15.80;40.60;;;;;;5036265;28;20199;-64
2023/04/05 00:54:12;;;;;;;3.08;2.83;;;15.80;40.50;;;;;;5036166;28;20230;-65
2023/04/05 00:56:41;;;;;;;3.25;2.80;;;15.80;40.60;;;;;;5054223;28;20192;-64
2023/04/05 00:59:08;;;;;;;3.08;2.88;;;15.70;40.40;;;;;;5036144;28;20241;-65
2023/04/05 01:01:36;;;;;;;3.20;2.90;;;15.70;40.50;;;;;;5054024;28;20275;-65
2023/04/05 01:04:04;;;;;;;2.92;2.63;;;15.70;40.50;;;;;;5036443;28;20211;-64
2023/04/05 01:06:52;;;;;;;2.90;2.55;;;15.70;40.50;;;;;;5035886;28;20203;-65
2023/04/05 01:09:33;;;;;;;4.68;3.13;;;15.70;40.70;;;;;;5033750;28;20204;-66
2023/04/05 01:12:05;;;;;;;3.35;2.85;;;15.70;40.40;;;;;;5036560;28;20206;-65
2023/04/05 01:14:32;;;;;;;3.25;2.85;;;15.70;40.50;;;;;;5054064;28;20179;-65
2023/04/05 01:16:59;;;;;;;3.55;3.08;;;15.70;40.50;;;;;;5035981;28;20208;-65
2023/04/05 01:19:27;;;;;;;3.28;2.85;;;15.70;40.50;;;;;;5035884;28;20195;-65
2023/04/05 01:22:26;;;;;;;2.90;2.60;;;15.70;40.50;;;;;;5036132;28;20211;-65
2023/04/05 01:25:18;;;;;;;2.85;2.65;;;15.70;40.50;;;;;;5054257;28;20179;-64
2023/04/05 01:27:56;;;;;;;2.90;2.70;;;15.60;40.40;;;;;;5036182;28;20317;-65
2023/04/05 01:30:26;;;;;;;3.40;3.10;;;15.60;40.70;;;;;;5054747;28;20541;-64
2023/04/05 01:32:59;;;;;;;3.17;2.88;;;15.60;40.50;;;;;;5037032;28;20192;-65
2023/04/05 01:35:29;;;;;;;3.83;2.97;;;15.60;40.70;;;;;;5036511;28;20696;-65
2023/04/05 01:37:59;;;;;;;2.90;2.60;;;15.60;40.60;;;;;;5054248;28;20264;-65
2023/04/05 01:40:27;;;;;;;3.00;2.80;;;15.60;40.60;;;;;;5035952;28;20203;-65
2023/04/05 01:42:54;;;;;;;3.55;3.20;;;15.60;40.50;;;;;;5035924;28;20211;-65
2023/04/05 01:45:21;;;;;;;3.47;2.85;;;15.50;40.60;;;;;;5036113;28;20199;-65
2023/04/05 01:47:50;;;;;;;3.13;2.72;;;15.60;40.60;;;;;;5035430;28;20309;-65
2023/04/05 01:50:20;;;;;;;2.90;2.70;;;15.50;40.50;;;;;;5035576;28;20210;-66
2023/04/05 01:52:47;;;;;;;2.83;2.53;;;15.50;40.50;;;;;;5053371;28;20249;-65
2023/04/05 01:55:16;;;;;;;3.10;2.70;;;15.50;40.60;;;;;;5053273;28;20233;-66
2023/04/05 01:57:43;;;;;;;3.00;2.80;;;15.50;41.10;;;;;;5035202;28;20222;-66
2023/04/05 02:00:12;;;;;;;3.15;2.42;;;15.50;40.70;;;;;;5053515;28;20624;-66
2023/04/05 02:02:43;;;;;;;3.28;2.67;;;15.50;40.70;;;;;;5053383;28;20175;-66
2023/04/05 02:05:12;;;;;;;2.97;2.70;;;15.40;40.60;;;;;;5053394;28;20188;-65
2023/04/05 02:07:39;;;;;;;3.13;2.55;;;15.40;40.60;;;;;;5035044;28;20220;-65
2023/04/05 02:10:07;;;;;;;3.30;2.55;;;15.40;40.80;;;;;;5035111;28;20249;-65
2023/04/05 02:12:38;;;;;;;3.28;2.97;;;15.40;40.80;;;;;;5035077;28;20206;-65
2023/04/05 02:15:07;;;;;;;3.67;2.83;;;15.40;40.70;;;;;;5034779;28;20195;-65
2023/04/05 02:17:38;;;;;;;3.22;2.85;;;15.40;40.80;;;;;;5035022;28;20218;-65
2023/04/05 02:20:07;;;;;;;3.17;2.85;;;15.40;40.90;;;;;;5034988;28;20196;-65
2023/04/05 02:22:36;;;;;;;2.97;2.67;;;15.40;40.90;;;;;;5034812;28;20676;-65
2023/04/05 02:25:03;;;;;;;2.92;2.58;;;15.40;40.70;;;;;;5052939;28;20192;-65
2023/04/05 02:27:30;;;;;;;3.25;3.00;;;15.40;40.90;;;;;;5052683;28;20211;-66
2023/04/05 02:29:58;;;;;;;2.45;2.25;;;15.40;40.70;;;;;;5034893;28;20276;-65
2023/04/05 02:32:25;;;;;;;3.00;2.70;;;15.30;40.80;;;;;;5038023;28;20195;-65
2023/04/05 02:34:52;;;;;;;3.22;2.92;;;15.30;40.90;;;;;;5039082;28;20203;-65
2023/04/05 02:37:19;;;;;;;2.95;2.75;;;15.30;40.80;;;;;;5057849;28;20211;-66
2023/04/05 02:39:48;;;;;;;3.30;3.00;;;15.30;40.90;;;;;;5056893;28;20260;-66
2023/04/05 02:42:15;;;;;;;2.97;2.78;;;15.30;40.90;;;;;;5038991;28;20206;-66
2023/04/05 02:44:43;;;;;;;3.20;2.70;;;15.30;40.80;;;;;;5056524;28;20661;-66
2023/04/05 02:47:20;;;;;;;3.13;2.83;;;15.30;40.80;;;;;;5038469;28;20215;-66
2023/04/05 02:49:52;;;;;;;2.80;2.60;;;15.30;40.90;;;;;;5038749;28;20195;-65
2023/04/05 02:52:20;;;;;;;3.50;3.13;;;15.30;40.80;;;;;;5038457;28;20191;-65
2023/04/05 02:54:49;;;;;;;3.25;2.63;;;15.30;40.90;;;;;;5038475;28;20642;-65
2023/04/05 02:57:22;;;;;;;2.88;2.63;;;15.20;40.90;;;;;;5038264;28;20212;-66
2023/04/05 02:59:56;;;;;;;3.47;3.03;;;15.30;40.90;;;;;;5038540;28;20707;-65
2023/04/05 03:02:27;;;;;;;3.00;2.80;;;15.20;40.80;;;;;;5038272;28;20199;-65
2023/04/05 03:04:54;;;;;;;2.70;2.50;;;15.20;40.90;;;;;;5037996;28;20226;-65
2023/04/05 03:07:24;;;;;;;3.08;2.78;;;15.20;40.80;;;;;;5055860;28;20211;-64
2023/04/05 03:09:53;;;;;;;3.28;2.97;;;15.20;40.60;;;;;;5037904;28;20215;-65
2023/04/05 03:12:21;;;;;;;2.90;2.70;;;15.20;40.70;;;;;;5037946;28;20207;-64
2023/04/05 03:14:49;;;;;;;3.30;3.00;;;15.20;40.80;;;;;;5038014;28;20217;-65
2023/04/05 03:17:21;;;;;;;3.80;3.22;;;15.20;40.80;;;;;;5037944;28;20207;-65
2023/04/05 03:19:59;;;;;;;2.90;2.70;;;15.20;40.80;;;;;;5037881;28;20734;-65
2023/04/05 03:22:27;;;;;;;3.00;2.80;;;15.20;41.30;;;;;;5055449;28;20275;-65
2023/04/05 03:24:57;;;;;;;3.00;2.78;;;15.20;41.40;;;;;;5037749;28;20204;-65
2023/04/05 03:27:26;;;;;;;3.05;2.80;;;15.20;41.80;;;;;;5037668;28;20306;-65
2023/04/05 03:30:10;;;;;;;3.35;2.75;;;15.10;41.80;;;;;;5037678;28;20191;-66
2023/04/05 03:32:43;;;;;;;3.17;2.97;;;15.10;41.90;;;;;;5037593;28;20619;-65
2023/04/05 03:35:20;;;;;;;3.33;2.90;;;15.10;41.80;;;;;;5037532;28;20180;-65
2023/04/05 03:37:48;;;;;;;2.95;2.75;;;15.10;41.90;;;;;;5037362;28;20266;-66
2023/04/05 03:40:17;;;;;;;3.40;3.03;;;15.10;41.90;;;;;;5037470;28;20187;-65
2023/04/05 03:42:44;;;;;;;2.80;2.60;;;15.10;41.90;;;;;;5053880;28;20187;-65
2023/04/05 03:45:12;;;;;;;3.75;3.03;;;15.10;41.90;;;;;;5037316;28;20192;-65
2023/04/05 03:47:40;;;;;;;3.47;2.72;;;15.10;41.80;;;;;;5037157;28;20219;-65
2023/04/05 03:50:08;;;;;;;2.88;2.67;;;15.10;41.90;;;;;;5055600;28;20192;-65
2023/04/05 03:52:36;;;;;;;2.70;2.50;;;15.10;41.90;;;;;;5055226;28;20289;-65
2023/04/05 03:55:05;;;;;;;3.58;3.10;;;15.10;41.90;;;;;;5037212;28;20219;-65
2023/04/05 03:57:36;;;;;;;2.83;2.63;;;15.10;41.80;;;;;;5037210;28;20733;-65
2023/04/05 04:00:13;;;;;;;3.10;2.80;;;15.10;41.60;;;;;;5037143;28;20190;-66
2023/04/05 04:02:43;;;;;;;3.28;3.03;;;15.10;41.40;;;;;;5054917;28;20246;-65
2023/04/05 04:05:12;;;;;;;3.53;3.22;;;15.10;41.80;;;;;;5037630;28;20188;-65
2023/04/05 04:07:40;;;;;;;3.13;2.83;;;15.10;41.30;;;;;;5036892;28;20709;-66
2023/04/05 04:10:08;;;;;;;3.10;2.80;;;15.10;40.80;;;;;;5037097;28;20200;-65
2023/04/05 04:12:38;;;;;;;4.22;3.30;;;15.20;40.70;;;;;;5037240;28;20219;-65
2023/04/05 04:15:07;;;;;;;3.08;2.78;;;15.20;40.50;;;;;;5037137;28;20696;-66
2023/04/05 04:17:43;;;;;;;3.10;2.80;;;15.30;40.70;;;;;;5036925;28;20628;-66
2023/04/05 04:20:28;;;;;;;3.13;2.83;;;15.30;40.60;;;;;;5036842;28;20625;-66
2023/04/05 04:23:15;;;;;;;3.35;3.05;;;15.30;40.40;;;;;;5055193;28;20254;-65
2023/04/05 04:26:01;;;;;;;3.15;2.83;;;15.40;40.50;;;;;;5054724;28;20203;-65
2023/04/05 04:28:49;;;;;;;3.30;3.00;;;15.40;40.50;;;;;;5054699;28;20227;-65
2023/04/05 04:31:38;;;;;;;2.97;2.72;;;15.30;40.40;;;;;;5036683;28;20222;-65
2023/04/05 04:34:24;;;;;;;3.47;3.17;;;15.40;40.70;;;;;;5055114;28;20186;-65
2023/04/05 04:37:16;;;;;;;4.00;3.10;;;15.40;40.60;;;;;;5053767;28;20277;-65
2023/04/05 04:39:46;;;;;;;3.50;3.20;;;15.40;40.10;;;;;;5055071;28;20282;-65
2023/04/05 04:42:37;;;;;;;3.40;3.10;;;15.40;40.30;;;;;;5036644;28;20689;-65
2023/04/05 04:45:16;;;;;;;3.50;3.20;;;15.50;40.50;;;;;;5036614;28;20183;-64
2023/04/05 04:48:07;;;;;;;3.22;2.92;;;15.50;39.80;;;;;;5043548;28;20215;-63
2023/04/05 04:50:50;;;;;;;3.53;3.22;;;15.50;39.80;;;;;;5054389;28;20172;-64
2023/04/05 04:53:20;;;;;;;3.30;2.72;;;15.50;39.90;;;;;;5036293;28;20195;-64
2023/04/05 04:55:49;;;;;;;4.10;3.00;;;15.40;40.00;;;;;;5054055;28;20195;-64
2023/04/05 04:58:17;;;;;;;3.92;3.10;;;15.40;40.30;;;;;;5036810;28;20222;-64
2023/04/05 05:00:51;;;;;;;3.80;3.35;;;15.40;40.40;;;;;;5036725;28;20230;-63
2023/04/05 05:03:21;;;;;;;3.40;3.10;;;15.40;40.30;;;;;;5054407;28;20202;-63
2023/04/05 05:05:49;;;;;;;3.20;2.90;;;15.50;40.30;;;;;;5036158;28;20628;-63
2023/04/05 05:08:20;;;;;;;4.80;3.40;;;15.50;40.50;;;;;;5036408;28;20273;-64
2023/04/05 05:10:50;;;;;;;3.40;3.10;;;15.50;40.40;;;;;;5036277;28;20204;-63
2023/04/05 05:13:18;;;;;;;4.15;3.33;;;15.50;40.30;;;;;;5036515;28;20183;-64
2023/04/05 05:15:45;;;;;;;3.65;3.03;;;15.50;40.50;;;;;;5054038;28;20187;-64
2023/04/05 05:18:13;;;;;;;3.22;3.00;;;15.50;40.40;;;;;;5036177;28;20226;-63
2023/04/05 05:20:41;;;;;;;3.47;3.17;;;15.60;40.50;;;;;;5053972;28;20214;-63
2023/04/05 05:23:08;;;;;;;3.60;3.30;;;15.60;40.10;;;;;;5036010;28;20294;-63
2023/04/05 05:25:35;;;;;;;3.95;3.20;;;15.60;39.90;;;;;;5053933;28;20217;-63
2023/04/05 05:28:03;;;;;;;3.30;3.00;;;15.60;39.50;;;;;;5053586;28;20560;-64
2023/04/05 05:30:30;;;;;;;2.97;2.67;;;15.60;39.60;;;;;;5036103;28;20203;-63
2023/04/05 05:33:00;;;;;;;3.25;2.95;;;15.60;39.60;;;;;;5036417;28;20200;-63
2023/04/05 05:35:28;;;;;;;3.53;3.22;;;15.70;39.80;;;;;;5054060;28;20561;-64
2023/04/05 05:37:56;;;;;;;4.25;3.25;;;15.70;39.40;;;;;;5054118;28;20628;-64
2023/04/05 05:40:25;;;;;;;4.20;2.97;;;15.80;39.80;;;;;;5054201;28;20196;-65
2023/04/05 05:42:52;;;;;;;3.38;3.03;;;15.90;40.10;;;;;;5054464;28;20224;-65
2023/04/05 05:45:20;;;;;;;2.97;2.72;;;16.00;39.50;;;;;;5054157;28;20219;-64
2023/04/05 05:47:47;;;;;;;3.40;3.10;;;16.20;39.80;;;;;;5054032;28;20560;-64
2023/04/05 05:50:15;;;;;;;3.38;3.08;;;16.40;39.30;;;;;;5036292;28;20191;-64
2023/04/05 05:52:44;;;;;;;3.17;2.88;;;16.60;39.10;;;;;;5036011;28;20199;-65
2023/04/05 05:55:11;;;;;;;3.30;3.00;;;16.80;38.70;;;;;;5037727;28;20260;-64
2023/04/05 05:57:38;;;;;;;3.00;2.80;;;16.90;38.70;;;;;;5054026;28;20211;-64
2023/04/05 06:00:08;;;;;;;3.00;2.80;;;17.10;38.60;;;;;;5036075;28;20658;-64
2023/04/05 06:02:38;;;;;;;3.60;2.90;;;17.20;38.20;;;;;;5053724;28;20257;-64
2023/04/05 06:05:07;;;;;;;3.47;3.17;;;17.30;37.90;;;;;;5053724;28;20725;-64
2023/04/05 06:07:36;;;;;;;2.92;2.72;;;17.40;37.60;;;;;;5057026;28;20211;-64
2023/04/05 06:10:05;;;;;;;4.00;3.00;;;17.50;37.50;;;;;;5057633;28;20211;-64
2023/04/05 06:12:34;;;;;;;2.95;2.75;;;17.60;37.30;;;;;;5039792;28;20231;-64
2023/04/05 06:15:01;;;;;;;3.33;3.00;;;17.70;37.10;;;;;;5057463;28;20191;-64
2023/04/05 06:17:28;;;;;;;3.33;3.03;;;17.80;37.10;;;;;;5057726;28;20221;-64
2023/04/05 06:19:55;;;;;;;3.40;3.10;;;17.80;36.90;;;;;;5039684;28;20358;-64
2023/04/05 06:22:23;;;;;;;3.28;2.95;;;17.70;36.90;;;;;;5059104;22;20224;-82
2023/04/05 06:24:51;;;;;;;3.65;3.25;;;17.70;36.90;;;;;;5020077;28;20211;-82
2023/04/05 06:27:19;;;;;;;3.13;2.80;;;17.70;37.00;;;;;;5036386;28;20219;-83
2023/04/05 06:29:46;;;;;;;3.30;3.00;;;17.80;36.90;;;;;;5035788;28;20700;-82
2023/04/05 06:32:13;;;;;;;3.90;3.30;;;18.00;36.90;;;;;;5039367;28;20192;-81
2023/04/05 06:34:40;;;;;;;3.60;3.30;;;18.10;36.50;;;;;;5036274;28;20215;-79
2023/04/05 06:37:07;;;;;;;3.70;3.17;;;18.30;36.20;;;;;;5035681;28;20227;-79
2023/04/05 06:39:38;;;;;;;2.97;2.78;;;18.50;36.40;;;;;;5036757;28;20203;-81
2023/04/05 06:42:05;;;;;;;4.10;2.90;;;18.60;36.10;;;;;;5036882;28;20295;-82
2023/04/05 06:44:45;;;;;;;3.53;3.22;;;18.90;36.00;;;;;;5020762;28;20566;-82
2023/04/05 06:47:12;;;;;;;3.78;3.10;;;19.00;35.90;;;;;;5037276;28;20223;-81
2023/04/05 06:49:39;;;;;;;3.40;3.10;;;19.20;35.90;;;;;;5035524;28;20287;-81
2023/04/05 06:52:07;;;;;;;3.67;3.30;;;19.40;36.30;;;;;;5035954;28;20228;-81
2023/04/05 06:54:34;;;;;;;4.32;3.92;;;19.40;35.50;;;;;;5037433;28;20635;-81
2023/04/05 06:57:01;;;;;;;3.92;3.50;;;19.50;35.20;;;;;;5004162;28;20224;-80
2023/04/05 06:59:28;;;;;;;4.20;3.80;;;19.50;35.40;;;;;;5020413;28;20594;-80
2023/04/05 07:01:57;;;;;;;4.13;3.70;;;19.60;35.30;;;;;;5036415;28;20206;-80
2023/04/05 07:04:25;;;;;;;4.38;3.95;;;19.60;35.30;;;;;;5037814;28;20220;-81
2023/04/05 07:06:53;;;;;;;4.88;3.63;;;19.70;35.30;;;;;;5035128;28;20223;-83
2023/04/05 07:09:23;;;;;;;5.35;4.60;;;19.90;35.20;;;;;;5035802;28;20216;-81
2023/04/05 07:11:49;;;;;;;4.50;3.65;;;20.00;35.10;;;;;;5020000;28;20223;-80
2023/04/05 07:14:17;;;;;;;4.53;4.13;;;20.10;35.00;;;;;;5035302;28;20581;-80
2023/04/05 07:16:45;;;;;;;5.15;4.65;;;20.20;35.50;;;;;;5035151;28;20593;-80
2023/04/05 07:19:14;;;;;;;6.45;4.10;;;20.30;34.80;;;;;;5018779;28;20669;-79
2023/04/05 07:21:41;;;;;;;6.18;4.53;;;20.40;34.70;;;;;;4994379;28;1184555;-79
2023/04/05 07:24:09;;;;;;;4.60;4.18;;;20.50;34.60;;;;;;5036092;28;20200;-79
2023/04/05 07:26:36;;;;;;;5.03;4.50;;;20.60;34.40;;;;;;5019979;28;20311;-80
2023/04/05 07:29:06;;;;;;;5.28;4.35;;;20.70;34.30;;;;;;5038500;28;20378;-81
2023/04/05 07:31:41;;;;;;;4.75;4.35;;;20.80;34.20;;;;;;5037952;28;20211;-81
2023/04/05 07:34:08;;;;;;;5.10;4.20;;;20.90;33.90;;;;;;5036535;28;20664;-80
2023/04/05 07:36:37;;;;;;;4.30;3.90;;;21.00;33.90;;;;;;5038102;28;20216;-81
2023/04/05 07:39:05;;;;;;;4.13;3.75;;;21.10;33.90;;;;;;5043465;28;20199;-81
2023/04/05 07:41:34;;;;;;;4.40;4.00;;;21.10;33.70;;;;;;5047420;28;20195;-81
2023/04/05 07:44:01;;;;;;;3.97;3.55;;;21.20;33.60;;;;;;5046330;28;20204;-81
2023/04/05 07:46:30;;;;;;;4.22;3.83;;;21.30;33.60;;;;;;5042452;28;20220;-81
2023/04/05 07:49:02;;;;;;;4.13;3.70;;;21.40;33.60;;;;;;5025968;28;20220;-81
2023/04/05 07:51:36;;;;;;;3.60;3.28;;;21.40;33.40;;;;;;5041066;28;20189;-81
2023/04/05 07:54:08;;;;;;;3.40;3.10;;;21.40;33.10;;;;;;5040502;28;20176;-81
2023/04/05 07:56:41;;;;;;;3.80;3.40;;;21.50;33.20;;;;;;5038393;28;20242;-81
2023/04/05 07:59:26;;;;;;;3.45;3.15;;;21.60;33.20;;;;;;5037752;28;20185;-81
2023/04/05 08:05:24;;;;;;;3.38;3.08;;;21.70;33.10;;;;;;5038574;28;20206;-81
2023/04/05 08:07:57;;;;;;;3.53;2.95;;;21.90;32.80;;;;;;5037286;28;20215;-81
2023/04/05 08:10:30;;;;;;;4.05;3.42;;;21.90;32.60;;;;;;5038111;28;20211;-81
2023/04/05 08:13:05;;;;;;;3.50;3.20;;;22.00;32.50;;;;;;5038930;28;20236;-81
2023/04/05 08:15:33;;;;;;;4.53;3.20;;;22.10;32.40;;;;;;5038920;28;20192;-82
2023/04/05 08:18:06;;;;;;;2.95;2.75;;;22.10;32.20;;;;;;5039577;28;20215;-81
2023/04/05 08:20:55;;;;;;;3.67;2.90;;;22.20;32.20;;;;;;5040000;28;20211;-81
2023/04/05 08:23:53;;;;;;;3.35;3.05;;;22.30;32.30;;;;;;5039638;28;20196;-81
2023/04/05 08:26:36;;;;;;;3.13;2.90;;;22.40;32.10;;;;;;5038910;28;20716;-82
2023/04/05 08:29:06;;;;;;;3.00;2.70;;;22.40;31.90;;;;;;5037705;28;20614;-81
2023/04/05 08:31:33;;;;;;;3.38;3.08;;;22.50;31.90;;;;;;5035449;28;20264;-81
2023/04/05 08:34:08;;;;;;;3.60;3.17;;;22.50;31.70;;;;;;5035859;28;20211;-82
2023/04/05 08:36:35;;;;;;;3.00;2.80;;;22.50;31.70;;;;;;5036215;28;20212;-81
2023/04/05 08:39:14;;;;;;;3.25;3.03;;;22.50;31.70;;;;;;5036842;28;20200;-81
2023/04/05 08:41:47;;;;;;;2.90;2.70;;;22.60;31.80;;;;;;5036467;28;20188;-81
2023/04/05 08:44:15;;;;;;;4.28;3.05;;;22.50;31.70;;;;;;5019851;28;20647;-81
2023/04/05 08:46:41;;;;;;;3.28;2.97;;;22.60;31.70;;;;;;5034959;28;20239;-81
2023/04/05 08:49:10;;;;;;;2.80;2.40;;;22.50;31.60;;;;;;5035470;28;20227;-81
2023/04/05 08:51:38;;;;;;;3.40;3.10;;;22.60;31.70;;;;;;5038201;28;20208;-81
2023/04/05 08:54:05;;;;;;;2.90;2.70;;;22.60;31.60;;;;;;5036026;28;20253;-81
2023/04/05 08:56:33;;;;;;;3.13;2.83;;;22.60;31.60;;;;;;5035175;28;20246;-81
2023/04/05 08:59:04;;;;;;;3.03;2.80;;;22.60;31.50;;;;;;5035370;28;20200;-81
2023/04/05 09:01:32;;;;;;;3.20;2.90;;;22.60;31.30;;;;;;5034585;28;20242;-81
2023/04/05 09:04:01;;;;;;;3.03;2.80;;;22.70;31.40;;;;;;5038247;28;20207;-82
2023/04/05 09:06:28;;;;;;;3.10;2.80;;;22.80;31.40;;;;;;5037096;28;20760;-81
2023/04/05 09:08:56;;;;;;;2.80;2.60;;;22.80;31.20;;;;;;5036829;28;20218;-81
2023/04/05 09:11:23;;;;;;;3.38;2.90;;;22.90;31.20;;;;;;5034938;28;20204;-82
2023/04/05 09:13:51;;;;;;;2.72;2.47;;;23.00;31.10;;;;;;5034692;28;20295;-80
2023/04/05 09:16:19;;;;;;;3.00;2.70;;;23.00;31.10;;;;;;5034874;28;20698;-80
2023/04/05 09:18:47;;;;;;;3.05;2.75;;;23.00;30.90;;;;;;5034974;28;20196;-81
2023/04/05 09:21:16;;;;;;;2.83;2.63;;;23.10;31.00;;;;;;5034632;28;20235;-81
2023/04/05 09:23:54;;;;;;;2.85;2.60;;;23.10;30.90;;;;;;5035076;28;20199;-81
2023/04/05 09:26:23;;;;;;;2.92;2.63;;;23.10;30.80;;;;;;5036407;28;20222;-81
2023/04/05 09:28:54;;;;;;;3.03;2.60;;;23.10;30.90;;;;;;5035680;28;20211;-81
2023/04/05 09:31:32;;;;;;;2.60;2.40;;;23.20;30.80;;;;;;5034695;28;20210;-81
2023/04/05 09:34:03;;;;;;;3.28;2.63;;;23.20;30.90;;;;;;5035780;28;20196;-81
2023/04/05 09:36:31;;;;;;;3.22;2.58;;;23.20;30.90;;;;;;5035690;28;20220;-81
2023/04/05 09:39:06;;;;;;;3.15;2.90;;;23.20;30.70;;;;;;5019050;28;20200;-81
2023/04/05 09:41:33;;;;;;;2.80;2.60;;;23.20;30.80;;;;;;5036210;28;20222;-81
2023/04/05 09:44:00;;;;;;;3.22;2.67;;;23.20;30.70;;;;;;5035073;28;20203;-81
2023/04/05 09:46:34;;;;;;;2.60;2.40;;;23.20;30.60;;;;;;5036070;28;20219;-82
2023/04/05 09:49:02;;;;;;;2.70;2.50;;;23.20;30.60;;;;;;5017880;28;20192;-82
2023/04/05 09:51:33;;;;;;;2.78;2.50;;;23.20;30.60;;;;;;5034053;28;20250;-81
2023/04/05 09:54:02;;;;;;;2.70;2.50;;;23.20;30.70;;;;;;5036622;28;20195;-81
2023/04/05 09:56:31;;;;;;;3.08;2.55;;;23.10;31.00;;;;;;5036779;28;20222;-81
2023/04/05 09:59:00;;;;;;;2.70;2.50;;;22.90;31.00;;;;;;5037226;28;20196;-81
2023/04/05 10:01:32;;;;;;;3.30;2.78;;;22.90;31.20;;;;;;5034465;28;20183;-81
2023/04/05 10:03:59;;;;;;;2.67;2.47;;;22.90;31.40;;;;;;5035521;28;20709;-81
2023/04/05 10:06:35;;;;;;;2.42;2.22;;;22.90;31.50;;;;;;5035169;28;20247;-81
2023/04/05 10:09:03;;;;;;;2.95;2.72;;;22.90;31.50;;;;;;5036550;28;20203;-81
2023/04/05 10:11:30;;;;;;;2.63;2.42;;;22.90;31.20;;;;;;5036399;28;20200;-81
2023/04/05 10:13:58;;;;;;;2.38;2.10;;;22.90;31.30;;;;;;5035812;28;20200;-81
2023/04/05 10:16:25;;;;;;;3.00;2.70;;;22.90;31.20;;;;;;5035433;28;20220;-81
2023/04/05 10:18:54;;;;;;;2.72;2.38;;;23.00;31.20;;;;;;5033343;28;20219;-81
2023/04/05 10:21:23;;;;;;;2.70;2.50;;;22.90;31.20;;;;;;5033488;28;20618;-82
2023/04/05 10:23:54;;;;;;;2.53;2.30;;;22.90;31.20;;;;;;5032591;28;20208;-78
2023/04/05 10:26:28;;;;;;;3.03;2.70;;;22.90;31.40;;;;;;5032170;28;20262;-79
2023/04/05 10:28:57;;;;;;;2.58;2.38;;;22.80;31.20;;;;;;5032392;28;20235;-80
2023/04/05 10:31:26;;;;;;;2.88;2.45;;;22.80;31.20;;;;;;5032774;28;20240;-80
2023/04/05 10:33:59;;;;;;;3.30;2.53;;;22.80;31.40;;;;;;5033001;28;20204;-80
2023/04/05 10:36:36;;;;;;;2.72;2.53;;;22.80;31.40;;;;;;5033710;28;20224;-80
2023/04/05 10:39:04;;;;;;;2.53;2.33;;;22.80;31.50;;;;;;5033225;28;20287;-80
2023/04/05 10:41:34;;;;;;;2.47;2.28;;;22.80;31.40;;;;;;5016529;28;20188;-80
2023/04/05 10:44:01;;;;;;;2.60;2.40;;;22.80;31.40;;;;;;5033055;28;20224;-81
2023/04/05 10:46:28;;;;;;;2.50;2.30;;;22.80;31.60;;;;;;5032755;28;20220;-81
2023/04/05 10:48:59;;;;;;;2.60;2.40;;;22.70;31.50;;;;;;5032489;28;20192;-80
2023/04/05 10:51:28;;;;;;;2.95;2.60;;;22.70;31.50;;;;;;5067592;22;20372;-81
2023/04/05 10:53:55;;;;;;;2.53;2.33;;;22.70;31.60;;;;;;5042951;28;20199;-79
2023/04/05 10:56:22;;;;;;;2.70;2.50;;;22.70;31.60;;;;;;5042652;28;20223;-79
2023/04/05 10:58:50;;;;;;;2.45;2.25;;;22.60;31.50;;;;;;5041103;28;20230;-79
2023/04/05 11:01:17;;;;;;;2.58;2.38;;;22.60;31.70;;;;;;5039607;28;20191;-79
2023/04/05 11:03:48;;;;;;;2.60;2.40;;;22.60;31.70;;;;;;5057437;28;20199;-79
2023/04/05 11:06:24;;;;;;;3.00;2.20;;;22.50;31.70;;;;;;5039704;28;20215;-79
2023/04/05 11:08:54;;;;;;;2.50;2.30;;;22.50;31.90;;;;;;5039406;28;20633;-80
2023/04/05 11:11:22;;;;;;;3.50;2.47;;;22.50;31.90;;;;;;5039681;28;20620;-79
2023/04/05 11:13:50;;;;;;;2.47;2.28;;;22.50;32.00;;;;;;5039354;28;20200;-79
2023/04/05 11:16:17;;;;;;;2.70;2.50;;;22.40;31.90;;;;;;5040168;28;20254;-79
2023/04/05 11:18:46;;;;;;;2.67;2.47;;;22.50;32.10;;;;;;5040862;28;20222;-79
2023/04/05 11:21:13;;;;;;;2.50;2.30;;;22.40;32.70;;;;;;5040703;28;20196;-79
2023/04/05 11:24:01;;;;;;;2.53;2.33;;;22.40;32.10;;;;;;5057029;28;20207;-79
2023/04/05 11:26:31;;;;;;;2.40;2.20;;;22.30;32.20;;;;;;5146250;22;20232;-81
2023/04/05 11:28:59;;;;;;;2.55;2.35;;;22.30;32.30;;;;;;5037737;28;20221;-81
2023/04/05 11:31:26;;;;;;;2.53;2.33;;;22.30;32.30;;;;;;5038109;28;20583;-81
2023/04/05 11:33:55;;;;;;;2.72;2.50;;;22.30;32.30;;;;;;5037737;28;20204;-81
2023/04/05 11:36:32;;;;;;;2.40;2.20;;;22.20;32.30;;;;;;5037535;28;20319;-81
2023/04/05 11:39:26;;;;;;;2.78;2.58;;;22.30;32.50;;;;;;5037248;28;20203;-81
2023/04/05 11:42:01;;;;;;;2.53;2.33;;;22.30;32.40;;;;;;5037151;28;20227;-81
2023/04/05 11:44:29;;;;;;;2.38;2.17;;;22.20;32.40;;;;;;5037153;28;20651;-81
2023/04/05 11:46:56;;;;;;;2.97;2.40;;;22.30;32.50;;;;;;5037091;28;20567;-81
2023/04/05 11:49:24;;;;;;;2.47;2.28;;;22.20;32.50;;;;;;5045837;28;20208;-81
2023/04/05 11:51:51;;;;;;;2.65;2.45;;;22.20;32.50;;;;;;5042911;28;20250;-80
2023/04/05 11:54:30;;;;;;;2.78;2.25;;;22.20;32.50;;;;;;5039788;28;20204;-80
2023/04/05 11:56:57;;;;;;;2.60;2.30;;;22.20;32.60;;;;;;5038923;28;20220;-81
2023/04/05 11:59:31;;;;;;;2.58;2.35;;;22.20;32.60;;;;;;5039946;28;20200;-80
2023/04/05 12:02:00;;;;;;;2.33;2.15;;;22.20;32.60;;;;;;5039529;28;20210;-80
2023/04/05 12:04:27;;;;;;;2.22;2.13;;;22.20;32.60;;;;;;5038515;28;20204;-81
2023/04/05 12:07:14;;;;;;;2.47;2.28;;;22.20;32.70;;;;;;5038852;28;20220;-80
2023/04/05 12:10:02;;;;;;;2.50;2.30;;;22.20;32.50;;;;;;5039639;28;20231;-80
2023/04/05 12:12:34;;;;;;;2.33;2.10;;;22.10;32.40;;;;;;5039616;28;20235;-81
2023/04/05 12:15:01;;;;;;;2.50;2.30;;;22.20;32.50;;;;;;5038382;28;20196;-80
2023/04/05 12:17:42;;;;;;;2.55;2.10;;;22.20;32.50;;;;;;5038595;28;20208;-80
2023/04/05 12:20:10;;;;;;;2.72;2.53;;;22.20;32.60;;;;;;5022492;28;20272;-80
2023/04/05 12:22:38;;;;;;;2.60;2.40;;;22.10;32.60;;;;;;5087531;22;20223;-79
2023/04/05 12:25:07;;;;;;;2.50;2.30;;;22.20;32.20;;;;;;5038617;28;20203;-80
2023/04/05 12:27:34;;;;;;;2.85;2.47;;;22.20;32.80;;;;;;5038432;28;20310;-80
2023/04/05 12:30:09;;;;;;;2.67;2.47;;;22.20;32.10;;;;;;5038542;28;20261;-79
2023/04/05 12:32:40;;;;;;;2.47;2.28;;;22.20;31.50;;;;;;5038355;28;20218;-79
2023/04/05 12:35:16;;;;;;;2.50;2.30;;;22.20;32.60;;;;;;5038384;28;20299;-79
2023/04/05 12:37:43;;;;;;;2.78;2.47;;;22.10;31.80;;;;;;5039883;28;20222;-79
2023/04/05 12:40:12;;;;;;;2.10;2.00;;;22.10;31.50;;;;;;5058507;28;20191;-80
2023/04/05 12:42:40;;;;;;;3.03;2.80;;;22.10;31.90;;;;;;5040497;28;20199;-80
2023/04/05 12:45:10;;;;;;;3.35;2.55;;;22.10;31.60;;;;;;5040647;28;20195;-80
2023/04/05 12:47:52;;;;;;;2.58;2.35;;;22.00;30.90;;;;;;5059165;28;20218;-80
2023/04/05 12:50:20;;;;;;;2.88;2.58;;;22.00;31.90;;;;;;5025799;28;20597;-80
2023/04/05 12:52:54;;;;;;;3.88;2.70;;;22.00;31.80;;;;;;5041855;28;20666;-80
2023/04/05 12:55:23;;;;;;;2.50;2.30;;;22.00;31.60;;;;;;5038464;28;20195;-80
2023/04/05 12:57:51;;;;;;;3.13;2.70;;;22.00;32.10;;;;;;5056628;28;20274;-79
2023/04/05 13:00:23;;;;;;;2.60;2.35;;;22.00;31.60;;;;;;5056112;28;20207;-80
2023/04/05 13:02:52;;;;;;;2.60;2.40;;;22.00;32.30;;;;;;5023750;28;20622;-79
2023/04/05 13:05:22;;;;;;;3.40;2.63;;;22.00;32.50;;;;;;5038995;28;20191;-79
2023/04/05 13:07:49;;;;;;;2.30;2.20;;;22.00;32.40;;;;;;5039751;28;20227;-79
2023/04/05 13:10:17;;;;;;;2.72;2.45;;;22.00;32.40;;;;;;5056098;28;20650;-80